createdAt,value
2023-12-30T00:00:17.859Z,96.32
2023-12-30T00:02:46.409Z,96.49
2023-12-30T00:05:13.200Z,96.45
2023-12-30T00:07:39.689Z,97.24
2023-12-30T00:10:06.749Z,96.09
2023-12-30T00:12:33.314Z,96.92
2023-12-30T00:14:59.811Z,97.78
2023-12-30T00:17:26.386Z,97.87
2023-12-30T00:19:54.883Z,99.11
2023-12-30T00:22:22.524Z,98.74
2023-12-30T00:24:49.183Z,98.86
2023-12-30T00:27:15.705Z,99.54
2023-12-30T00:29:42.375Z,99.72
2023-12-30T00:32:09.063Z,100.00
2023-12-30T00:34:36.191Z,100.00
2023-12-30T00:37:02.854Z,99.16
2023-12-30T00:39:29.450Z,99.71
2023-12-30T00:41:56.006Z,100.00
2023-12-30T00:44:22.570Z,98.57
2023-12-30T00:46:49.109Z,100.00
2023-12-30T00:49:16.645Z,98.65
2023-12-30T00:51:43.330Z,97.96
2023-12-30T00:54:09.802Z,98.84
2023-12-30T00:56:36.763Z,99.00
2023-12-30T00:59:03.408Z,99.61
2023-12-30T01:01:29.993Z,98.63
2023-12-30T01:03:56.633Z,96.98
2023-12-30T01:06:23.251Z,98.78
2023-12-30T01:08:49.768Z,99.28
2023-12-30T01:11:16.980Z,100.00
2023-12-30T01:13:43.469Z,100.00
2023-12-30T01:16:10.047Z,100.00
2023-12-30T01:18:36.651Z,100.00
2023-12-30T01:21:04.831Z,100.00
2023-12-30T01:23:31.353Z,100.00
2023-12-30T01:25:57.860Z,100.00
2023-12-30T01:28:24.413Z,100.00
2023-12-30T01:30:51.069Z,100.00
2023-12-30T01:33:17.825Z,100.00
2023-12-30T01:35:44.430Z,100.00
2023-12-30T01:38:10.978Z,100.00
2023-12-30T01:40:44.570Z,100.00
2023-12-30T01:43:25.591Z,100.00
2023-12-30T01:45:54.234Z,100.00
2023-12-30T01:48:22.094Z,100.00
2023-12-30T01:50:51.058Z,100.00
2023-12-30T01:53:18.656Z,100.00
2023-12-30T01:55:50.360Z,100.00
2023-12-30T01:58:17.009Z,100.00
2023-12-30T02:00:43.750Z,100.00
2023-12-30T02:03:10.921Z,100.00
2023-12-30T02:05:37.449Z,100.00
2023-12-30T02:08:04.893Z,100.00
2023-12-30T02:10:31.568Z,100.00
2023-12-30T02:12:58.200Z,100.00
2023-12-30T02:15:27.822Z,100.00
2023-12-30T02:17:57.673Z,100.00
2023-12-30T02:20:24.477Z,100.00
2023-12-30T02:22:50.984Z,100.00
2023-12-30T02:25:18.025Z,100.00
2023-12-30T02:27:45.260Z,100.00
2023-12-30T02:30:13.276Z,100.00
2023-12-30T02:32:40.310Z,100.00
2023-12-30T02:35:07.264Z,100.00
2023-12-30T02:37:33.908Z,100.00
2023-12-30T02:40:00.698Z,100.00
2023-12-30T02:42:27.391Z,100.00
2023-12-30T02:44:55.107Z,100.00
2023-12-30T02:47:21.633Z,100.00
2023-12-30T02:49:48.348Z,100.00
2023-12-30T02:52:14.969Z,100.00
2023-12-30T02:54:41.606Z,100.00
2023-12-30T02:57:08.181Z,100.00
2023-12-30T02:59:34.897Z,100.00
2023-12-30T03:02:01.608Z,100.00
2023-12-30T03:04:28.353Z,100.00
2023-12-30T03:06:55.060Z,100.00
2023-12-30T03:09:21.588Z,100.00
2023-12-30T03:11:48.200Z,100.00
2023-12-30T03:14:14.814Z,100.00
2023-12-30T03:16:41.367Z,100.00
2023-12-30T03:19:07.945Z,100.00
2023-12-30T03:21:34.580Z,100.00
2023-12-30T03:24:01.087Z,100.00
2023-12-30T03:26:27.612Z,100.00
2023-12-30T03:28:54.208Z,100.00
2023-12-30T03:31:25.834Z,100.00
2023-12-30T03:33:53.354Z,100.00
2023-12-30T03:36:20.464Z,100.00
2023-12-30T03:38:53.834Z,100.00
2023-12-30T03:41:21.736Z,100.00
2023-12-30T03:43:49.846Z,100.00
2023-12-30T03:46:16.501Z,100.00
2023-12-30T03:48:43.146Z,100.00
2023-12-30T03:51:10.768Z,100.00
2023-12-30T03:53:39.533Z,100.00
2023-12-30T03:56:06.334Z,100.00
2023-12-30T03:58:32.916Z,100.00
2023-12-30T04:00:59.710Z,100.00
2023-12-30T04:03:26.216Z,100.00
2023-12-30T04:05:52.972Z,100.00
2023-12-30T04:08:19.548Z,100.00
2023-12-30T04:10:46.055Z,100.00
2023-12-30T04:13:12.608Z,100.00
2023-12-30T04:15:39.446Z,100.00
2023-12-30T04:18:06.421Z,100.00
2023-12-30T04:20:33.040Z,100.00
2023-12-30T04:22:59.883Z,100.00
2023-12-30T04:25:26.750Z,100.00
2023-12-30T04:27:53.335Z,100.00
2023-12-30T04:30:20.083Z,100.00
2023-12-30T04:32:46.682Z,100.00
2023-12-30T04:35:13.469Z,100.00
2023-12-30T04:37:40.035Z,100.00
2023-12-30T04:40:07.100Z,100.00
2023-12-30T04:42:33.716Z,100.00
2023-12-30T04:45:00.251Z,100.00
2023-12-30T04:47:26.826Z,100.00
2023-12-30T04:49:53.372Z,100.00
2023-12-30T04:52:20.956Z,100.00
2023-12-30T04:54:47.594Z,100.00
2023-12-30T04:57:14.117Z,100.00
2023-12-30T04:59:40.630Z,100.00
2023-12-30T05:02:07.376Z,100.00
2023-12-30T05:04:34.904Z,100.00
2023-12-30T05:07:01.621Z,100.00
2023-12-30T05:09:28.292Z,100.00
2023-12-30T05:11:55.671Z,100.00
2023-12-30T05:14:23.201Z,100.00
2023-12-30T05:16:49.760Z,100.00
2023-12-30T05:19:17.243Z,100.00
2023-12-30T05:21:44.770Z,100.00
2023-12-30T05:24:11.421Z,100.00
2023-12-30T05:26:38.020Z,100.00
2023-12-30T05:29:04.515Z,100.00
2023-12-30T05:31:31.089Z,100.00
2023-12-30T05:33:57.758Z,100.00
2023-12-30T05:36:24.305Z,100.00
2023-12-30T05:38:50.803Z,100.00
2023-12-30T05:41:17.394Z,100.00
2023-12-30T05:43:44.432Z,100.00
2023-12-30T05:46:20.217Z,100.00
2023-12-30T05:48:47.806Z,100.00
2023-12-30T05:51:14.346Z,100.00
2023-12-30T05:53:42.162Z,100.00
2023-12-30T05:56:08.919Z,100.00
2023-12-30T05:58:39.273Z,100.00
2023-12-30T06:01:07.965Z,100.00
2023-12-30T06:03:36.667Z,100.00
2023-12-30T06:06:04.449Z,100.00
2023-12-30T06:08:32.893Z,100.00
2023-12-30T06:10:59.492Z,100.00
2023-12-30T06:13:26.155Z,100.00
2023-12-30T06:15:52.814Z,100.00
2023-12-30T06:18:19.434Z,100.00
2023-12-30T06:20:47.616Z,100.00
2023-12-30T06:23:14.942Z,100.00
2023-12-30T06:25:41.928Z,100.00
2023-12-30T06:28:08.648Z,100.00
2023-12-30T06:30:35.444Z,100.00
2023-12-30T06:33:08.142Z,100.00
2023-12-30T06:35:35.822Z,100.00
2023-12-30T06:38:02.937Z,100.00
2023-12-30T06:40:29.550Z,100.00
2023-12-30T06:42:57.228Z,100.00
2023-12-30T06:45:23.830Z,100.00
2023-12-30T06:47:50.432Z,100.00
2023-12-30T06:50:19.655Z,100.00
2023-12-30T06:52:48.561Z,100.00
2023-12-30T06:55:22.883Z,100.00
2023-12-30T06:57:53.536Z,100.00
2023-12-30T07:00:22.552Z,100.00
2023-12-30T07:02:49.208Z,100.00
2023-12-30T07:05:15.974Z,100.00
2023-12-30T07:07:42.798Z,100.00
2023-12-30T07:10:09.632Z,100.00
2023-12-30T07:12:36.237Z,100.00
2023-12-30T07:15:03.149Z,100.00
2023-12-30T07:17:29.768Z,100.00
2023-12-30T07:19:58.302Z,100.00
2023-12-30T07:22:25.966Z,100.00
2023-12-30T07:24:52.787Z,100.00
2023-12-30T07:27:19.516Z,100.00
2023-12-30T07:29:47.072Z,100.00
2023-12-30T07:32:13.633Z,100.00
2023-12-30T07:34:41.028Z,100.00
2023-12-30T07:37:07.831Z,100.00
2023-12-30T07:39:34.506Z,100.00
2023-12-30T07:42:01.258Z,100.00
2023-12-30T07:44:29.892Z,100.00
2023-12-30T07:46:56.561Z,100.00
2023-12-30T07:49:24.190Z,100.00
2023-12-30T07:51:50.877Z,100.00
2023-12-30T07:54:18.435Z,100.00
2023-12-30T07:56:45.021Z,100.00
2023-12-30T07:59:13.436Z,100.00
2023-12-30T08:01:45.128Z,100.00
2023-12-30T08:04:12.227Z,100.00
2023-12-30T08:06:41.081Z,100.00
2023-12-30T08:09:09.200Z,100.00
2023-12-30T08:11:49.577Z,100.00
2023-12-30T08:14:22.419Z,100.00
2023-12-30T08:16:48.917Z,100.00
2023-12-30T08:19:15.897Z,100.00
2023-12-30T08:21:42.488Z,100.00
2023-12-30T08:24:09.214Z,100.00
2023-12-30T08:26:36.923Z,100.00
2023-12-30T08:29:03.517Z,100.00
2023-12-30T08:31:30.108Z,100.00
2023-12-30T08:33:56.802Z,100.00
2023-12-30T08:36:24.186Z,100.00
2023-12-30T08:38:50.792Z,100.00
2023-12-30T08:41:17.678Z,100.00
2023-12-30T08:43:44.616Z,100.00
2023-12-30T08:46:11.546Z,100.00
2023-12-30T08:48:38.517Z,100.00
2023-12-30T08:51:06.272Z,100.00
2023-12-30T08:53:33.816Z,100.00
2023-12-30T08:56:03.238Z,100.00
2023-12-30T08:58:29.826Z,100.00
2023-12-30T09:00:56.363Z,100.00
2023-12-30T09:03:22.936Z,100.00
2023-12-30T09:05:49.871Z,98.38
2023-12-30T09:08:16.498Z,100.00
2023-12-30T09:10:44.113Z,100.00
2023-12-30T09:13:10.744Z,100.00
2023-12-30T09:15:37.925Z,100.00
2023-12-30T09:18:05.287Z,100.00
2023-12-30T09:20:31.900Z,100.00
2023-12-30T09:22:58.418Z,100.00
2023-12-30T09:25:25.593Z,100.00
2023-12-30T09:27:52.091Z,98.24
2023-12-30T09:30:18.654Z,96.13
2023-12-30T09:32:46.537Z,94.69
2023-12-30T09:35:13.248Z,96.15
2023-12-30T09:37:40.438Z,97.71
2023-12-30T09:40:07.646Z,100.00
2023-12-30T09:42:38.224Z,100.00
2023-12-30T09:45:05.946Z,100.00
2023-12-30T09:47:34.145Z,100.00
2023-12-30T09:50:00.744Z,100.00
2023-12-30T09:52:27.315Z,100.00
2023-12-30T09:54:53.954Z,100.00
2023-12-30T09:57:22.142Z,100.00
2023-12-30T09:59:49.171Z,100.00
2023-12-30T10:02:15.976Z,100.00
2023-12-30T10:04:44.247Z,100.00
2023-12-30T10:07:12.947Z,100.00
2023-12-30T10:09:39.719Z,100.00
2023-12-30T10:12:06.897Z,100.00
2023-12-30T10:14:33.421Z,100.00
2023-12-30T10:17:03.328Z,97.41
2023-12-30T10:19:30.651Z,96.16
2023-12-30T10:21:57.602Z,93.62
2023-12-30T10:24:25.147Z,91.96
2023-12-30T10:26:51.718Z,94.95
2023-12-30T10:29:20.652Z,92.70
2023-12-30T10:32:02.385Z,92.34
2023-12-30T10:34:28.959Z,94.17
2023-12-30T10:36:56.965Z,95.17
2023-12-30T10:39:23.990Z,92.34
2023-12-30T10:41:50.514Z,93.01
2023-12-30T10:44:17.461Z,92.38
2023-12-30T10:46:48.767Z,94.83
2023-12-30T10:49:17.571Z,91.80
2023-12-30T10:51:44.836Z,92.44
2023-12-30T10:54:17.612Z,90.65
2023-12-30T10:56:46.058Z,94.77
2023-12-30T10:59:13.756Z,92.16
2023-12-30T11:01:41.815Z,94.61
2023-12-30T11:04:13.244Z,96.71
2023-12-30T11:06:57.137Z,95.97
2023-12-30T11:09:25.425Z,96.81
2023-12-30T11:11:55.341Z,94.85
2023-12-30T11:14:22.752Z,97.67
2023-12-30T11:16:52.856Z,93.05
2023-12-30T11:19:30.904Z,91.59
2023-12-30T11:22:02.417Z,91.68
2023-12-30T11:24:29.324Z,88.20
2023-12-30T11:26:56.396Z,88.16
2023-12-30T11:29:30.560Z,88.18
2023-12-30T11:31:59.967Z,86.09
2023-12-30T11:34:28.676Z,88.00
2023-12-30T11:36:59.446Z,88.19
2023-12-30T11:39:32.418Z,88.96
2023-12-30T11:42:00.297Z,88.75
2023-12-30T11:44:29.067Z,89.48
2023-12-30T11:46:55.801Z,87.28
2023-12-30T11:49:24.842Z,87.40
2023-12-30T11:51:52.482Z,87.08
2023-12-30T11:54:19.415Z,86.28
2023-12-30T11:56:47.030Z,85.74
2023-12-30T11:59:14.092Z,84.95
2023-12-30T12:01:42.512Z,84.22
2023-12-30T12:04:09.953Z,84.41
2023-12-30T12:06:37.269Z,83.55
2023-12-30T12:09:07.416Z,82.19
2023-12-30T12:11:34.069Z,81.02
2023-12-30T12:14:00.733Z,82.29
2023-12-30T12:16:28.974Z,83.22
2023-12-30T12:18:56.288Z,81.15
2023-12-30T12:21:26.417Z,82.31
2023-12-30T12:23:54.767Z,79.20
2023-12-30T12:26:23.275Z,80.96
2023-12-30T12:28:49.884Z,80.77
2023-12-30T12:31:18.318Z,81.87
2023-12-30T12:33:45.022Z,82.11
2023-12-30T12:36:12.073Z,81.92
2023-12-30T12:38:38.709Z,81.19
2023-12-30T12:41:05.396Z,83.51
2023-12-30T12:43:32.557Z,82.72
2023-12-30T12:45:59.453Z,83.40
2023-12-30T12:48:26.210Z,82.99
2023-12-30T12:50:56.898Z,83.07
2023-12-30T12:53:24.356Z,82.63
2023-12-30T12:55:51.116Z,84.24
2023-12-30T12:58:26.697Z,84.78
2023-12-30T13:00:57.497Z,82.64
2023-12-30T13:03:24.175Z,83.45
2023-12-30T13:05:50.785Z,82.79
2023-12-30T13:08:18.563Z,84.16
2023-12-30T13:10:49.926Z,82.69
2023-12-30T13:13:16.762Z,83.53
2023-12-30T13:15:43.813Z,84.48
2023-12-30T13:18:14.454Z,82.09
2023-12-30T13:20:43.490Z,81.84
2023-12-30T13:23:12.051Z,81.38
2023-12-30T13:25:39.264Z,82.57
2023-12-30T13:28:06.319Z,82.25
2023-12-30T13:30:33.026Z,82.51
2023-12-30T13:33:02.611Z,82.68
2023-12-30T13:35:38.209Z,81.64
2023-12-30T13:38:13.720Z,81.25
2023-12-30T13:40:44.458Z,82.37
2023-12-30T13:43:11.742Z,81.29
2023-12-30T13:45:44.661Z,82.59
2023-12-30T13:48:52.142Z,80.90
2023-12-30T13:51:21.173Z,78.92
2023-12-30T13:53:47.916Z,79.21
2023-12-30T13:56:22.231Z,79.63
2023-12-30T13:58:50.103Z,80.34
2023-12-30T14:01:18.304Z,79.17
2023-12-30T14:03:47.424Z,79.84
2023-12-30T14:06:18.960Z,78.69
2023-12-30T14:08:50.041Z,79.91
2023-12-30T14:11:32.598Z,80.24
2023-12-30T14:14:03.028Z,80.64
2023-12-30T14:16:33.056Z,81.41
2023-12-30T14:19:00.937Z,81.60
2023-12-30T14:21:28.610Z,81.23
2023-12-30T14:23:55.157Z,82.38
2023-12-30T14:26:22.400Z,82.42
2023-12-30T14:28:49.265Z,83.66
2023-12-30T14:31:16.904Z,82.47
2023-12-30T14:33:43.882Z,82.01
2023-12-30T14:36:10.628Z,83.37
2023-12-30T14:38:37.728Z,83.34
2023-12-30T14:41:06.424Z,82.69
2023-12-30T14:43:33.504Z,84.06
2023-12-30T14:46:00.955Z,83.80
2023-12-30T14:48:27.881Z,84.31
2023-12-30T14:50:54.397Z,84.68
2023-12-30T14:55:49.515Z,84.98
2023-12-30T14:58:16.219Z,85.34
2023-12-30T15:00:43.848Z,85.28
2023-12-30T15:03:10.551Z,86.72
2023-12-30T15:05:37.172Z,86.35
2023-12-30T15:08:04.467Z,89.01
2023-12-30T15:10:31.146Z,86.08
2023-12-30T15:12:57.702Z,87.29
2023-12-30T15:15:25.293Z,87.82
2023-12-30T15:17:52.360Z,91.99
2023-12-30T15:20:20.219Z,91.82
2023-12-30T15:22:47.099Z,92.44
2023-12-30T15:25:13.964Z,92.74
2023-12-30T15:27:45.024Z,93.42
2023-12-30T15:30:12.279Z,94.55
2023-12-30T15:32:41.864Z,94.01
2023-12-30T15:35:11.107Z,94.12
2023-12-30T15:37:37.851Z,94.22
2023-12-30T15:40:05.723Z,93.63
2023-12-30T15:42:32.452Z,94.22
2023-12-30T15:45:00.992Z,93.96
2023-12-30T15:47:28.733Z,94.45
2023-12-30T15:49:57.136Z,96.41
2023-12-30T15:52:23.814Z,99.03
2023-12-30T15:54:51.843Z,98.54
2023-12-30T15:57:18.448Z,98.89
2023-12-30T15:59:46.979Z,100.00
2023-12-30T16:02:13.541Z,100.00
2023-12-30T16:04:42.070Z,100.00
2023-12-30T16:07:08.752Z,100.00
2023-12-30T16:09:43.152Z,100.00
2023-12-30T16:12:10.337Z,100.00
2023-12-30T16:14:38.816Z,100.00
2023-12-30T16:17:08.287Z,100.00
2023-12-30T16:19:35.195Z,100.00
2023-12-30T16:22:01.904Z,100.00
2023-12-30T16:24:28.508Z,100.00
2023-12-30T16:26:56.456Z,100.00
2023-12-30T16:29:23.545Z,100.00
2023-12-30T16:31:50.582Z,100.00
2023-12-30T16:34:17.307Z,100.00
2023-12-30T16:36:44.034Z,100.00
2023-12-30T16:39:11.630Z,100.00
2023-12-30T16:41:38.344Z,100.00
2023-12-30T16:44:05.020Z,100.00
2023-12-30T16:46:32.093Z,100.00
2023-12-30T16:48:59.511Z,100.00
2023-12-30T16:51:26.258Z,100.00
2023-12-30T16:53:52.784Z,100.00
2023-12-30T16:56:19.457Z,100.00
2023-12-30T16:58:47.249Z,100.00
2023-12-30T17:01:14.139Z,100.00
2023-12-30T17:03:40.740Z,100.00
2023-12-30T17:06:07.352Z,100.00
2023-12-30T17:08:33.898Z,100.00
2023-12-30T17:11:00.500Z,100.00
2023-12-30T17:13:35.008Z,100.00
2023-12-30T17:16:06.909Z,100.00
2023-12-30T17:18:33.529Z,100.00
2023-12-30T17:21:00.717Z,100.00
2023-12-30T17:23:27.245Z,100.00
2023-12-30T17:25:53.829Z,100.00
2023-12-30T17:28:20.402Z,100.00
2023-12-30T17:30:47.045Z,100.00
2023-12-30T17:33:14.541Z,100.00
2023-12-30T17:35:41.103Z,100.00
2023-12-30T17:38:09.383Z,100.00
2023-12-30T17:40:36.111Z,100.00
2023-12-30T17:43:02.989Z,100.00
2023-12-30T17:45:30.748Z,100.00
2023-12-30T17:47:57.341Z,100.00
2023-12-30T17:50:23.941Z,100.00
2023-12-30T17:52:51.183Z,100.00
2023-12-30T17:55:17.707Z,100.00
2023-12-30T17:57:44.266Z,100.00
2023-12-30T18:00:11.929Z,100.00
2023-12-30T18:02:39.413Z,100.00
2023-12-30T18:05:06.127Z,100.00
2023-12-30T18:07:33.223Z,100.00
2023-12-30T18:09:59.899Z,100.00
2023-12-30T18:12:26.416Z,100.00
2023-12-30T18:14:52.984Z,100.00
2023-12-30T18:17:19.575Z,100.00
2023-12-30T18:19:46.305Z,100.00
2023-12-30T18:22:13.332Z,100.00
2023-12-30T18:24:39.847Z,100.00
2023-12-30T18:27:06.908Z,100.00
2023-12-30T18:29:33.475Z,100.00
2023-12-30T18:32:02.834Z,100.00
2023-12-30T18:34:30.474Z,100.00
2023-12-30T18:36:57.084Z,100.00
2023-12-30T18:39:24.506Z,100.00
2023-12-30T18:41:51.061Z,100.00
2023-12-30T18:44:17.701Z,100.00
2023-12-30T18:46:44.267Z,100.00
2023-12-30T18:49:11.082Z,100.00
2023-12-30T18:51:37.662Z,100.00
2023-12-30T18:54:04.219Z,100.00
2023-12-30T18:56:31.395Z,100.00
2023-12-30T18:58:57.987Z,100.00
2023-12-30T19:01:24.538Z,100.00
2023-12-30T19:03:54.087Z,100.00
2023-12-30T19:06:20.994Z,100.00
2023-12-30T19:08:48.535Z,100.00
2023-12-30T19:11:15.026Z,100.00
2023-12-30T19:13:43.554Z,100.00
2023-12-30T19:16:10.305Z,100.00
2023-12-30T19:18:36.873Z,100.00
2023-12-30T19:21:04.105Z,100.00
2023-12-30T19:23:31.809Z,100.00
2023-12-30T19:25:58.460Z,100.00
2023-12-30T19:28:25.051Z,100.00
2023-12-30T19:30:52.504Z,100.00
2023-12-30T19:33:19.351Z,100.00
2023-12-30T19:35:46.536Z,100.00
2023-12-30T19:38:13.834Z,100.00
2023-12-30T19:40:45.975Z,100.00
2023-12-30T19:43:13.176Z,100.00
2023-12-30T19:45:39.743Z,100.00
2023-12-30T19:48:06.710Z,100.00
2023-12-30T19:50:33.338Z,100.00
2023-12-30T19:53:00.063Z,100.00
2023-12-30T19:55:26.787Z,100.00
2023-12-30T19:57:54.115Z,100.00
2023-12-30T20:00:20.697Z,100.00
2023-12-30T20:02:47.889Z,100.00
2023-12-30T20:05:14.709Z,100.00
2023-12-30T20:07:41.478Z,100.00
2023-12-30T20:10:12.690Z,100.00
2023-12-30T20:12:40.660Z,100.00
2023-12-30T20:15:08.455Z,100.00
2023-12-30T20:17:36.735Z,100.00
2023-12-30T20:20:07.086Z,100.00
2023-12-30T20:22:34.801Z,100.00
2023-12-30T20:25:01.586Z,100.00
2023-12-30T20:27:28.874Z,100.00
2023-12-30T20:29:55.562Z,100.00
2023-12-30T20:32:22.905Z,100.00
2023-12-30T20:34:49.722Z,100.00
2023-12-30T20:37:18.851Z,100.00
2023-12-30T20:39:45.744Z,100.00
2023-12-30T20:42:12.399Z,100.00
2023-12-30T20:44:39.294Z,100.00
2023-12-30T20:47:05.994Z,100.00
2023-12-30T20:49:32.571Z,100.00
2023-12-30T20:51:59.552Z,100.00
2023-12-30T20:54:26.038Z,100.00
2023-12-30T20:56:52.632Z,100.00
2023-12-30T20:59:21.742Z,100.00
2023-12-30T21:01:49.147Z,100.00
2023-12-30T21:04:16.726Z,100.00
2023-12-30T21:06:43.774Z,100.00
2023-12-30T21:09:10.956Z,100.00
2023-12-30T21:11:37.996Z,100.00
2023-12-30T21:14:05.412Z,100.00
2023-12-30T21:16:32.313Z,100.00
2023-12-30T21:18:59.876Z,100.00
2023-12-30T21:21:26.556Z,100.00
2023-12-30T21:23:54.107Z,100.00
2023-12-30T21:26:22.726Z,100.00
2023-12-30T21:28:50.342Z,100.00
2023-12-30T21:31:16.962Z,100.00
2023-12-30T21:33:43.679Z,100.00
2023-12-30T21:36:10.221Z,100.00
2023-12-30T21:38:37.254Z,100.00
2023-12-30T21:41:05.497Z,100.00
2023-12-30T21:43:32.139Z,100.00
2023-12-30T21:45:59.401Z,100.00
2023-12-30T21:48:26.060Z,100.00
2023-12-30T21:50:52.785Z,100.00
2023-12-30T21:53:19.319Z,100.00
2023-12-30T21:55:46.202Z,100.00
2023-12-30T21:58:12.856Z,100.00
2023-12-30T22:00:41.160Z,100.00
2023-12-30T22:03:08.043Z,100.00
2023-12-30T22:05:36.316Z,100.00
2023-12-30T22:08:03.072Z,100.00
2023-12-30T22:10:30.917Z,100.00
2023-12-30T22:12:57.489Z,100.00
2023-12-30T22:15:24.064Z,100.00
2023-12-30T22:17:50.690Z,100.00
2023-12-30T22:20:17.196Z,100.00
2023-12-30T22:22:43.816Z,100.00
2023-12-30T22:25:10.469Z,100.00
2023-12-30T22:27:37.062Z,100.00
2023-12-30T22:30:03.838Z,100.00
2023-12-30T22:32:31.060Z,100.00
2023-12-30T22:34:59.549Z,100.00
2023-12-30T22:37:27.108Z,100.00
2023-12-30T22:39:54.649Z,100.00
2023-12-30T22:42:21.414Z,100.00
2023-12-30T22:44:47.903Z,100.00
2023-12-30T22:47:14.435Z,100.00
2023-12-30T22:49:41.012Z,100.00
2023-12-30T22:52:09.180Z,100.00
2023-12-30T22:54:38.747Z,100.00
2023-12-30T22:57:09.445Z,100.00
2023-12-30T22:59:36.727Z,100.00
2023-12-30T23:02:03.633Z,100.00
2023-12-30T23:04:30.824Z,100.00
2023-12-30T23:06:59.627Z,100.00
2023-12-30T23:09:26.873Z,100.00
2023-12-30T23:11:59.322Z,100.00
2023-12-30T23:14:26.864Z,100.00
2023-12-30T23:16:53.460Z,100.00
2023-12-30T23:19:20.535Z,100.00
2023-12-30T23:21:47.064Z,100.00
2023-12-30T23:24:13.556Z,100.00
2023-12-30T23:26:40.322Z,100.00
2023-12-30T23:29:06.961Z,100.00
2023-12-30T23:31:33.607Z,100.00
2023-12-30T23:34:00.368Z,100.00
2023-12-30T23:36:28.012Z,100.00
2023-12-30T23:38:54.525Z,100.00
2023-12-30T23:41:21.103Z,100.00
2023-12-30T23:43:47.701Z,100.00
2023-12-30T23:46:14.413Z,100.00
2023-12-30T23:48:41.003Z,100.00
2023-12-30T23:51:07.535Z,100.00
2023-12-30T23:53:35.166Z,100.00
2023-12-30T23:56:03.381Z,100.00
2023-12-30T23:58:29.989Z,100.00
